createdAt,value
2022-09-05T09:25:14.756Z,6.82
2022-09-05T09:28:49.775Z,6.75
2022-09-05T09:31:47.803Z,8.00
2022-09-05T09:34:26.607Z,8.13
2022-09-05T09:36:59.431Z,7.10
2022-09-05T09:42:34.908Z,8.30
2022-09-05T09:45:27.459Z,7.38
2022-09-05T09:48:02.088Z,7.25
2022-09-05T09:53:29.726Z,8.25
2022-09-05T09:56:46.569Z,7.32
2022-09-05T09:59:57.418Z,6.95
2022-09-05T10:05:46.236Z,6.80
2022-09-05T10:10:39.331Z,6.53
2022-09-05T10:20:17.506Z,6.75
2022-09-05T10:23:11.955Z,5.90
2022-09-05T10:25:51.719Z,6.22
2022-09-05T10:28:35.262Z,6.35
2022-09-05T10:32:53.601Z,6.18
2022-09-05T10:35:15.498Z,5.93
2022-09-05T10:37:02.610Z,6.32
2022-09-05T10:39:32.014Z,6.63
2022-09-05T10:42:03.622Z,6.20
2022-09-05T10:44:48.236Z,5.70
2022-09-05T10:47:35.761Z,6.32
2022-09-05T10:50:11.746Z,6.18
2022-09-05T10:53:10.681Z,5.75
2022-09-05T10:56:09.247Z,5.78
2022-09-05T11:02:08.110Z,5.47
2022-09-05T11:02:27.976Z,6.38
2022-09-05T11:05:19.996Z,5.55
2022-09-05T11:08:16.372Z,6.25
2022-09-05T11:11:29.547Z,6.15
2022-09-05T11:14:03.683Z,6.18
2022-09-05T11:16:52.534Z,5.47
2022-09-05T11:19:22.906Z,5.90
2022-09-05T11:22:21.924Z,5.13
2022-09-05T11:24:55.642Z,5.53
2022-09-05T11:27:40.027Z,5.88
2022-09-05T11:30:31.039Z,5.88
2022-09-05T11:39:13.413Z,5.70
2022-09-05T11:39:51.197Z,6.05
2022-09-05T11:40:24.712Z,6.93
2022-09-05T11:42:17.811Z,8.57
2022-09-05T11:44:50.736Z,6.38
2022-09-05T11:47:42.227Z,7.25
2022-09-05T11:50:36.204Z,6.63
2022-09-05T11:53:18.273Z,5.95
2022-09-05T11:55:50.954Z,6.40
2022-09-05T11:58:45.069Z,6.60
2022-09-05T12:01:41.788Z,6.72
2022-09-05T12:04:27.692Z,6.65
2022-09-05T12:06:59.428Z,6.28
2022-09-05T12:10:47.937Z,7.22
2022-09-05T12:13:24.490Z,6.57
2022-09-05T12:16:08.635Z,6.88
2022-09-05T12:18:57.381Z,6.43
2022-09-05T12:21:59.119Z,7.18
2022-09-05T12:25:25.778Z,6.50
2022-09-05T12:27:39.426Z,6.50
2022-09-05T12:30:15.253Z,5.72
2022-09-05T12:36:04.010Z,6.25
2022-09-05T12:40:15.733Z,5.65
2022-09-05T12:41:32.021Z,6.55
2022-09-05T12:43:52.694Z,6.80
2022-09-05T12:45:50.180Z,5.90
2022-09-05T12:48:38.651Z,5.82
2022-09-05T12:51:46.614Z,5.72
2022-09-05T12:54:24.806Z,5.70
2022-09-05T13:02:58.887Z,5.63
2022-09-05T13:03:08.948Z,5.30
2022-09-05T13:03:35.573Z,5.78
2022-09-05T13:06:25.780Z,5.15
2022-09-05T13:09:05.603Z,5.30
2022-09-05T13:14:50.360Z,5.07
2022-09-05T13:15:08.116Z,5.72
2022-09-05T13:18:07.375Z,5.03
2022-09-05T13:20:39.730Z,5.20
2022-09-05T13:23:41.084Z,5.18
2022-09-05T13:26:23.736Z,5.30
2022-09-05T13:29:10.153Z,5.07
2022-09-05T13:37:53.800Z,4.70
2022-09-05T13:38:03.702Z,4.82
2022-09-05T13:38:10.674Z,6.50
2022-09-05T13:40:22.982Z,4.95
2022-09-05T13:43:15.724Z,5.05
2022-09-05T13:45:53.013Z,4.47
2022-09-05T13:48:28.381Z,4.22
2022-09-05T13:50:57.716Z,4.38
2022-09-05T13:53:36.877Z,3.92
2022-09-05T13:56:20.344Z,4.63
2022-09-05T13:58:56.981Z,4.32
2022-09-05T14:01:30.273Z,4.30
2022-09-05T14:06:48.918Z,5.45
2022-09-05T14:09:53.704Z,4.68
2022-09-05T14:12:23.650Z,4.32
2022-09-05T14:15:10.853Z,4.32
2022-09-05T14:17:59.780Z,4.35
2022-09-05T14:20:51.010Z,4.13
2022-09-05T14:23:18.324Z,4.22
2022-09-05T14:25:52.328Z,7.40
2022-09-05T14:28:30.065Z,4.28
2022-09-05T14:34:05.754Z,4.05
2022-09-05T14:37:52.209Z,4.07
2022-09-05T14:37:54.599Z,4.90
2022-09-05T14:40:36.291Z,3.40
2022-09-05T14:43:31.235Z,3.63
2022-09-05T14:46:11.083Z,3.65
2022-09-05T14:48:43.526Z,3.72
2022-09-05T14:51:25.885Z,3.70
2022-09-05T15:01:50.068Z,4.45
2022-09-05T15:02:41.334Z,3.22
2022-09-05T15:03:03.633Z,3.97
2022-09-05T15:05:41.137Z,4.10
2022-09-05T15:09:48.874Z,4.65
2022-09-05T15:12:17.891Z,5.03
2022-09-05T15:14:03.853Z,4.30
2022-09-05T15:16:32.177Z,3.72
2022-09-05T15:18:59.143Z,4.00
2022-09-05T15:21:34.006Z,3.85
2022-09-05T15:24:17.494Z,3.70
2022-09-05T15:27:04.486Z,4.30
2022-09-05T15:29:35.452Z,6.63
2022-09-05T15:32:23.682Z,3.78
2022-09-05T15:34:50.956Z,3.70
2022-09-05T15:37:36.630Z,3.95
2022-09-05T15:40:23.029Z,3.53
2022-09-05T15:42:50.969Z,4.30
2022-09-05T15:45:28.232Z,3.97
2022-09-05T15:48:14.779Z,3.58
2022-09-05T15:50:46.404Z,3.50
2022-09-05T15:53:34.557Z,4.20
2022-09-05T15:56:10.862Z,5.30
2022-09-05T15:58:53.278Z,7.32
2022-09-05T16:01:58.874Z,3.83
2022-09-05T16:06:41.400Z,3.75
2022-09-05T16:10:27.871Z,5.53
2022-09-05T16:10:33.561Z,6.38
2022-09-05T16:12:46.072Z,5.20
2022-09-05T16:18:15.732Z,6.47
2022-09-05T16:23:23.590Z,3.80
2022-09-05T16:23:33.124Z,4.10
2022-09-05T16:26:54.380Z,5.72
2022-09-05T16:29:47.479Z,3.50
2022-09-05T16:32:26.049Z,3.95
2022-09-05T16:34:56.544Z,3.88
2022-09-05T16:37:34.482Z,4.30
2022-09-05T16:40:24.364Z,4.07
2022-09-05T16:43:02.854Z,3.33
2022-09-05T16:45:54.189Z,3.75
2022-09-05T16:48:39.288Z,4.05
2022-09-05T16:51:15.727Z,4.72
2022-09-05T16:53:58.559Z,3.88
2022-09-05T16:56:37.959Z,3.53
2022-09-05T16:59:10.503Z,3.50
2022-09-05T17:02:06.753Z,3.70
2022-09-05T17:05:04.096Z,3.58
2022-09-05T17:07:35.604Z,6.88
2022-09-05T17:10:11.536Z,4.68
2022-09-05T17:12:38.597Z,4.78
2022-09-05T17:15:09.821Z,4.10
2022-09-05T17:18:22.617Z,3.30
2022-09-05T17:20:36.997Z,3.70
2022-09-05T17:29:01.277Z,4.18
2022-09-05T17:29:45.823Z,4.10
2022-09-05T17:29:49.643Z,3.92
2022-09-05T17:31:54.473Z,4.07
2022-09-05T17:34:28.613Z,5.43
2022-09-05T17:37:17.925Z,4.75
2022-09-05T17:39:48.826Z,5.57
2022-09-05T17:42:19.108Z,4.47
2022-09-05T17:45:03.072Z,4.45
2022-09-05T17:47:44.421Z,6.18
2022-09-05T17:50:17.528Z,4.55
2022-09-05T17:52:57.051Z,4.68
2022-09-05T17:55:43.736Z,4.70
2022-09-05T17:58:48.862Z,3.90
2022-09-05T18:01:26.910Z,6.53
2022-09-05T18:03:55.857Z,10.93
2022-09-05T18:06:59.049Z,10.32
2022-09-05T18:09:48.247Z,5.35
2022-09-05T18:13:13.285Z,3.65
2022-09-05T18:15:27.419Z,3.60
2022-09-05T18:17:54.380Z,3.95
2022-09-05T18:20:36.140Z,3.60
2022-09-05T18:23:38.909Z,3.90
2022-09-05T18:26:06.883Z,4.38
2022-09-05T18:28:59.102Z,4.10
2022-09-05T18:31:41.385Z,5.33
2022-09-05T18:36:51.756Z,4.95
2022-09-05T18:39:24.828Z,5.43
2022-09-05T18:42:26.043Z,4.55
2022-09-05T18:45:28.843Z,5.30
2022-09-05T18:48:01.633Z,5.32
2022-09-05T18:50:32.917Z,5.15
2022-09-05T18:53:09.475Z,5.13
2022-09-05T18:56:12.706Z,5.25
2022-09-05T18:58:28.913Z,6.78
2022-09-05T19:00:56.022Z,5.68
2022-09-05T19:03:28.182Z,6.35
2022-09-05T19:06:34.759Z,6.32
2022-09-05T19:09:05.546Z,6.93
2022-09-05T19:11:49.582Z,6.55
2022-09-05T19:14:49.013Z,5.53
2022-09-05T19:17:45.440Z,6.18
2022-09-05T19:20:32.803Z,5.93
2022-09-05T19:23:23.587Z,6.85
2022-09-05T19:26:11.231Z,6.80
2022-09-05T19:36:46.281Z,6.10
2022-09-05T19:36:52.113Z,6.03
2022-09-05T19:37:11.975Z,5.97
2022-09-05T19:37:26.124Z,6.30
2022-09-05T19:47:35.380Z,7.05
2022-09-05T19:47:42.047Z,6.90
2022-09-05T19:48:35.063Z,6.10
2022-09-05T19:51:17.421Z,6.15
2022-09-05T19:56:35.973Z,5.50
2022-09-05T19:59:03.724Z,5.85
2022-09-05T20:01:30.959Z,6.28
2022-09-05T20:03:59.079Z,5.53
2022-09-05T20:06:30.170Z,5.88
2022-09-05T20:09:18.273Z,6.25
2022-09-05T20:11:56.790Z,5.55
2022-09-05T20:14:23.620Z,6.50
2022-09-05T20:16:51.965Z,6.45
2022-09-05T20:19:33.377Z,6.80
2022-09-05T20:22:17.392Z,6.30
2022-09-05T20:24:52.565Z,7.53
2022-09-05T20:27:19.628Z,6.70
2022-09-05T20:29:57.912Z,6.20
2022-09-05T20:32:38.752Z,6.07
2022-09-05T20:38:32.948Z,6.78
2022-09-05T20:43:17.116Z,6.55
2022-09-05T20:43:21.924Z,6.70
2022-09-05T20:43:54.176Z,6.78
2022-09-05T20:50:48.401Z,6.47
2022-09-05T20:54:08.322Z,6.57
2022-09-05T20:54:23.201Z,6.07
2022-09-05T20:55:38.387Z,7.05
2022-09-05T20:58:13.555Z,6.57
2022-09-05T21:01:12.579Z,6.60
2022-09-05T21:03:36.780Z,6.22
2022-09-05T21:06:22.542Z,6.03
2022-09-05T21:08:51.048Z,6.38
2022-09-05T21:11:20.571Z,6.00
2022-09-05T21:13:52.776Z,5.95
2022-09-05T21:16:28.037Z,6.45
2022-09-05T21:18:54.838Z,5.90
2022-09-05T21:21:32.354Z,6.18
2022-09-05T21:24:16.923Z,6.43
2022-09-05T21:26:48.436Z,6.22
2022-09-05T21:29:16.617Z,6.68
2022-09-05T21:31:49.236Z,6.20
2022-09-05T21:34:38.390Z,6.15
2022-09-05T21:37:12.643Z,6.03
2022-09-05T21:39:42.950Z,6.10
2022-09-05T21:44:05.776Z,6.38
2022-09-05T21:47:41.328Z,6.07
2022-09-05T21:48:03.206Z,6.90
2022-09-05T21:50:58.754Z,6.38
2022-09-05T21:57:01.783Z,5.80
2022-09-05T21:59:29.610Z,7.30
2022-09-05T21:59:29.833Z,6.32
2022-09-05T22:01:59.965Z,6.85
2022-09-05T22:04:27.078Z,7.50
2022-09-05T22:06:55.562Z,6.97
2022-09-05T22:09:22.678Z,7.13
2022-09-05T22:11:52.733Z,6.90
2022-09-05T22:14:21.086Z,6.78
2022-09-05T22:16:50.255Z,7.13
2022-09-05T22:19:27.015Z,6.97
2022-09-05T22:22:15.495Z,6.50
2022-09-05T22:24:55.100Z,6.53
2022-09-05T22:27:21.960Z,6.93
2022-09-05T22:29:50.358Z,5.88
2022-09-05T22:32:25.890Z,6.50
2022-09-05T22:35:26.921Z,7.20
2022-09-05T22:37:49.462Z,7.13
2022-09-05T22:40:27.224Z,6.53
2022-09-05T22:42:58.048Z,6.80
2022-09-05T22:45:25.200Z,7.18
2022-09-05T22:47:52.274Z,7.07
2022-09-05T22:50:19.167Z,6.88
2022-09-05T22:52:46.008Z,6.60
2022-09-05T22:55:12.876Z,7.55
2022-09-05T22:57:39.830Z,7.13
2022-09-05T23:00:07.568Z,7.22
2022-09-05T23:02:35.268Z,7.25
2022-09-05T23:05:02.950Z,7.75
2022-09-05T23:07:29.698Z,7.05
2022-09-05T23:09:56.457Z,7.30
2022-09-05T23:12:23.309Z,7.25
2022-09-05T23:14:50.155Z,7.00
2022-09-05T23:17:16.992Z,6.80
2022-09-05T23:19:43.732Z,6.78
2022-09-05T23:22:10.572Z,7.18
2022-09-05T23:24:37.414Z,7.78
2022-09-05T23:27:04.224Z,7.38
2022-09-05T23:29:30.999Z,7.50
2022-09-05T23:31:57.805Z,7.22
2022-09-05T23:34:25.620Z,6.78
2022-09-05T23:36:52.421Z,7.65
2022-09-05T23:39:19.307Z,7.53
2022-09-05T23:41:46.243Z,7.22
2022-09-05T23:44:13.523Z,7.78
2022-09-05T23:46:40.501Z,8.43
2022-09-05T23:49:07.477Z,7.53
2022-09-05T23:51:34.320Z,7.47
2022-09-05T23:54:01.110Z,7.85
2022-09-05T23:56:27.887Z,7.60
2022-09-05T23:58:56.994Z,8.10
